Time;durP1;ratioP1;P1;durP2;ratioP2;P2;SDS_P1;SDS_P2;PMS_P1;PMS_P2;Temp;Humidity;BMP_temperature;BMP_pressure;BME280_temperature;BME280_humidity;BME280_pressure;Samples;Min_cycle;Max_cycle;Signal;HPM_P1;HPM_P2
2021/12/04 00:01:22;;;;;;;14.02;7.70;;;;;;;;;;5032031;28;20033;-65
2021/12/04 00:03:48;;;;;;;13.63;7.35;;;;;;;;;;5031835;28;20033;-65
2021/12/04 00:06:28;;;;;;;16.98;7.05;;;;;;;;;;5027891;28;20041;-65
2021/12/04 00:09:00;;;;;;;20.23;8.02;;;2.10;99.90;;;;;;5027903;28;20036;-65
2021/12/04 00:11:26;;;;;;;16.73;7.28;;;1.20;99.90;;;;;;5033529;28;20102;-65
2021/12/04 00:13:51;;;;;;;13.02;6.95;;;1.70;99.90;;;;;;5037764;28;20421;-64
2021/12/04 00:16:17;;;;;;;14.55;7.28;;;1.60;99.90;;;;;;5035194;28;20060;-65
2021/12/04 00:18:43;;;;;;;13.35;7.20;;;;;;;;;;5028784;28;20504;-65
2021/12/04 00:21:08;;;;;;;14.13;6.97;;;1.90;99.90;;;;;;5031228;28;20532;-65
2021/12/04 00:23:34;;;;;;;18.42;8.55;;;2.30;99.90;;;;;;5036950;28;20039;-65
2021/12/04 00:26:00;;;;;;;16.52;7.53;;;;;;;;;;5034084;28;20456;-65
2021/12/04 00:28:26;;;;;;;12.45;6.53;;;;;;;;;;5030678;28;20033;-65
2021/12/04 00:30:51;;;;;;;11.80;6.80;;;1.90;99.90;;;;;;5032042;28;20431;-65
2021/12/04 00:33:22;;;;;;;15.85;6.35;;;;;;;;;;5033441;28;20083;-65
2021/12/04 00:36:04;;;;;;;14.10;7.28;;;;;;;;;;5033058;28;20091;-71
2021/12/04 00:49:13;;;;;;;18.02;7.53;;;;;;;;;;5032298;28;20067;-70
2021/12/04 00:51:38;;;;;;;11.25;5.88;;;2.00;99.90;;;;;;5030004;28;20032;-71
2021/12/04 00:54:05;;;;;;;17.15;7.55;;;;;;;;;;5038339;28;20025;-72
2021/12/04 00:56:31;;;;;;;15.63;7.63;;;1.90;99.90;;;;;;5034525;28;20033;-72
2021/12/04 00:58:57;;;;;;;16.73;7.88;;;;;;;;;;5029921;28;20024;-71
2021/12/04 01:01:22;;;;;;;14.23;7.78;;;2.20;99.90;;;;;;5030275;28;20044;-71
2021/12/04 01:03:48;;;;;;;18.55;7.72;;;1.80;99.90;;;;;;5036250;28;20033;-71
2021/12/04 01:06:14;;;;;;;17.42;7.35;;;;;;;;;;5032626;28;20755;-71
2021/12/04 01:08:40;;;;;;;20.45;9.13;;;;;;;;;;5031061;28;20155;-72
2021/12/04 01:11:06;;;;;;;16.08;7.10;;;;;;;;;;5026188;28;20918;-72
2021/12/04 01:13:32;;;;;;;12.93;7.40;;;;;;;;;;5032105;28;20026;-71
2021/12/04 01:15:58;;;;;;;15.68;7.68;;;;;;;;;;5027369;28;20037;-71
2021/12/04 01:18:23;;;;;;;16.15;7.32;;;1.60;99.90;;;;;;5030768;28;20037;-72
2021/12/04 01:20:49;;;;;;;23.20;10.15;;;1.70;99.90;;;;;;5026119;28;20081;-72
2021/12/04 01:23:16;;;;;;;11.43;6.75;;;2.50;99.90;;;;;;5021383;28;20521;-72
2021/12/04 01:25:41;;;;;;;11.68;7.13;;;2.00;99.90;;;;;;5035344;28;20025;-71
2021/12/04 01:28:07;;;;;;;14.55;7.28;;;;;;;;;;5029806;28;20504;-71
2021/12/04 01:30:33;;;;;;;11.77;7.47;;;;;;;;;;5025036;28;20029;-72
2021/12/04 01:32:59;;;;;;;18.95;7.40;;;;;;;;;;5031263;28;20036;-71
2021/12/04 01:35:25;;;;;;;16.02;7.80;;;;;;;;;;5034449;28;20095;-72
2021/12/04 01:37:51;;;;;;;18.40;7.82;;;;;;;;;;5031511;28;20037;-71
2021/12/04 01:40:18;;;;;;;14.57;7.60;;;;;;;;;;5026192;28;20041;-72
2021/12/04 01:42:44;;;;;;;14.40;7.05;;;;;;;;;;5029049;28;20048;-71
2021/12/04 01:45:09;;;;;;;16.15;7.60;;;2.00;99.90;;;;;;5033751;28;20037;-71
2021/12/04 01:47:35;;;;;;;13.18;7.22;;;2.40;99.90;;;;;;5033282;28;20036;-72
2021/12/04 01:50:01;;;;;;;16.02;7.97;;;2.00;99.90;;;;;;5028446;28;20474;-72
2021/12/04 01:52:27;;;;;;;32.50;13.07;;;2.10;99.90;;;;;;5030683;28;20113;-71
2021/12/04 01:54:52;;;;;;;13.80;8.20;;;2.80;99.90;;;;;;5039651;28;20112;-73
2021/12/04 01:57:18;;;;;;;14.00;7.72;;;2.10;99.90;;;;;;5029212;28;20066;-74
2021/12/04 01:59:43;;;;;;;12.93;7.65;;;2.10;99.90;;;;;;5029056;28;20033;-74
2021/12/04 02:02:09;;;;;;;14.68;7.80;;;2.40;99.90;;;;;;5019525;28;20063;-65
2021/12/04 02:04:34;;;;;;;13.85;7.53;;;2.40;99.90;;;;;;5037985;28;20040;-65
2021/12/04 02:07:03;;;;;;;19.57;7.90;;;2.40;99.90;;;;;;5034699;28;20086;-65
2021/12/04 02:09:29;;;;;;;16.80;8.20;;;2.00;99.90;;;;;;5029641;28;20048;-66
2021/12/04 02:11:54;;;;;;;12.65;7.57;;;2.00;99.90;;;;;;5025784;28;20021;-65
2021/12/04 02:14:20;;;;;;;13.23;7.95;;;2.00;99.90;;;;;;5034149;28;20037;-65
2021/12/04 02:16:45;;;;;;;14.63;8.10;;;2.00;99.90;;;;;;5035203;28;20032;-65
2021/12/04 02:19:11;;;;;;;12.40;7.25;;;2.00;99.90;;;;;;5028949;28;20128;-65
2021/12/04 02:21:36;;;;;;;14.55;8.18;;;2.00;99.90;;;;;;5026875;28;20076;-65
2021/12/04 02:24:02;;;;;;;15.75;7.35;;;2.00;99.90;;;;;;5030544;28;20044;-65
2021/12/04 02:26:27;;;;;;;13.43;8.02;;;1.90;99.90;;;;;;5030993;28;20029;-65
2021/12/04 02:28:55;;;;;;;16.73;8.20;;;2.10;99.90;;;;;;5031007;28;20030;-65
2021/12/04 02:31:20;;;;;;;15.23;8.02;;;2.10;99.90;;;;;;5025841;28;20041;-65
2021/12/04 02:33:46;;;;;;;15.80;8.82;;;2.00;99.90;;;;;;5034672;28;20032;-65
2021/12/04 02:36:11;;;;;;;12.43;6.78;;;2.30;99.90;;;;;;5037811;28;20021;-65
2021/12/04 02:38:37;;;;;;;13.90;7.38;;;2.00;99.90;;;;;;5030430;28;20033;-65
2021/12/04 02:41:02;;;;;;;14.95;8.13;;;2.00;99.90;;;;;;5027681;28;20036;-65
2021/12/04 02:43:28;;;;;;;17.30;8.63;;;2.00;99.90;;;;;;5030337;28;20132;-65
2021/12/04 02:45:53;;;;;;;12.40;7.38;;;2.10;99.90;;;;;;5036888;28;20044;-65
2021/12/04 02:48:19;;;;;;;14.43;7.72;;;2.10;99.90;;;;;;5033757;28;20045;-65
2021/12/04 02:50:45;;;;;;;13.15;7.55;;;2.70;99.90;;;;;;5029291;28;20073;-65
2021/12/04 02:53:11;;;;;;;17.08;8.50;;;2.00;99.90;;;;;;5028363;28;20064;-65
2021/12/04 02:55:36;;;;;;;17.48;8.82;;;2.10;99.90;;;;;;5033896;28;20029;-65
2021/12/04 02:58:02;;;;;;;15.95;8.57;;;2.00;99.90;;;;;;5026991;28;20215;-65
2021/12/04 03:00:27;;;;;;;16.30;7.65;;;2.40;99.90;;;;;;5028671;28;20115;-65
2021/12/04 03:02:56;;;;;;;17.83;8.32;;;;;;;;;;5026764;28;20497;-65
2021/12/04 03:05:24;;;;;;;13.23;7.93;;;2.50;99.90;;;;;;5037333;28;20037;-65
2021/12/04 03:07:50;;;;;;;17.48;7.75;;;2.30;99.90;;;;;;5030244;28;20041;-65
2021/12/04 03:10:15;;;;;;;15.85;8.68;;;2.20;99.90;;;;;;5029377;28;20109;-65
2021/12/04 03:12:41;;;;;;;16.30;7.50;;;2.60;99.90;;;;;;5025608;28;20108;-65
2021/12/04 03:15:06;;;;;;;16.58;8.68;;;2.20;99.90;;;;;;5036379;28;20021;-65
2021/12/04 03:17:32;;;;;;;16.50;7.70;;;2.30;99.90;;;;;;5032101;28;20428;-65
2021/12/04 03:19:57;;;;;;;14.55;7.97;;;2.30;99.90;;;;;;5026037;28;20041;-65
2021/12/04 03:22:23;;;;;;;12.43;7.63;;;2.20;99.90;;;;;;5025993;28;20068;-65
2021/12/04 03:24:49;;;;;;;13.23;8.07;;;2.20;99.90;;;;;;5032943;28;20049;-65
2021/12/04 03:27:16;;;;;;;17.25;8.93;;;2.20;99.90;;;;;;5034670;28;20036;-65
2021/12/04 03:29:47;;;;;;;14.82;7.97;;;2.20;99.90;;;;;;5028308;28;20057;-65
2021/12/04 03:32:25;;;;;;;15.50;7.80;;;1.90;99.90;;;;;;5025939;28;20038;-66
2021/12/04 03:43:03;;;;;;;14.20;7.95;;;;;;;;;;5027858;28;20079;-65
2021/12/04 03:45:29;;;;;;;13.77;8.43;;;2.30;99.90;;;;;;5041690;28;20489;-65
2021/12/04 03:48:03;;;;;;;15.15;8.27;;;2.50;99.90;;;;;;5037059;28;20047;-65
2021/12/04 03:50:29;;;;;;;16.25;8.27;;;2.30;99.90;;;;;;5031985;28;20045;-65
2021/12/04 03:52:54;;;;;;;14.77;8.40;;;2.30;99.90;;;;;;5028360;28;20025;-65
2021/12/04 03:55:20;;;;;;;13.88;7.88;;;2.60;99.90;;;;;;5038759;28;20397;-65
2021/12/04 03:57:45;;;;;;;13.50;7.85;;;2.40;99.90;;;;;;5039931;28;20065;-65
2021/12/04 04:00:11;;;;;;;15.70;8.48;;;2.00;99.90;;;;;;5035346;28;20116;-66
2021/12/04 04:02:37;;;;;;;14.63;8.70;;;2.20;99.90;;;;;;5029368;28;20037;-65
2021/12/04 04:05:03;;;;;;;15.30;9.20;;;2.20;99.90;;;;;;5031569;28;20499;-65
2021/12/04 04:07:28;;;;;;;16.40;8.85;;;2.20;99.90;;;;;;5036774;28;20038;-65
2021/12/04 04:09:54;;;;;;;16.27;7.55;;;2.50;99.90;;;;;;5035275;28;20029;-65
2021/12/04 04:12:19;;;;;;;18.23;8.57;;;2.20;99.90;;;;;;5030961;28;20030;-65
2021/12/04 04:14:44;;;;;;;13.98;8.23;;;2.20;99.90;;;;;;5030243;28;20578;-65
2021/12/04 04:17:10;;;;;;;18.45;9.50;;;2.20;99.90;;;;;;5035179;28;20026;-65
2021/12/04 04:19:36;;;;;;;17.83;8.80;;;2.20;99.90;;;;;;5034452;28;20018;-65
2021/12/04 04:22:01;;;;;;;14.82;8.13;;;2.20;99.90;;;;;;5029497;28;20366;-65
2021/12/04 04:24:26;;;;;;;16.17;8.25;;;2.20;99.90;;;;;;5027741;28;20029;-65
2021/12/04 04:26:52;;;;;;;18.02;8.77;;;1.80;99.90;;;;;;5042353;28;20061;-65
2021/12/04 04:29:17;;;;;;;16.75;8.30;;;2.20;99.90;;;;;;5036273;28;20041;-65
2021/12/04 04:31:47;;;;;;;19.88;8.70;;;2.10;99.90;;;;;;5031120;28;20029;-65
2021/12/04 04:34:12;;;;;;;13.52;7.60;;;2.30;99.90;;;;;;5026062;28;20025;-65
2021/12/04 05:13:40;;;;;;;17.48;9.45;;;2.10;99.90;;;;;;5025373;28;20037;-65
2021/12/04 05:18:39;;;;;;;15.27;8.45;;;1.70;99.90;;;;;;5037669;28;20041;-65
2021/12/04 05:21:05;;;;;;;16.88;9.65;;;1.80;99.90;;;;;;5034349;28;20106;-65
2021/12/04 05:23:31;;;;;;;18.02;9.30;;;1.90;99.90;;;;;;5029586;28;20032;-65
2021/12/04 05:25:56;;;;;;;20.55;9.65;;;1.90;99.90;;;;;;5027267;28;20025;-65
2021/12/04 05:28:21;;;;;;;16.52;9.02;;;2.00;99.90;;;;;;5032936;28;20039;-65
2021/12/04 05:30:47;;;;;;;19.00;9.07;;;1.90;99.90;;;;;;5033820;28;20075;-65
2021/12/04 05:33:12;;;;;;;19.83;9.73;;;1.90;99.90;;;;;;5030203;28;20073;-65
2021/12/04 05:35:38;;;;;;;16.50;9.25;;;2.00;99.90;;;;;;5029678;28;20171;-65
2021/12/04 05:38:04;;;;;;;17.17;9.73;;;1.90;99.90;;;;;;5040103;28;20040;-65
2021/12/04 05:40:29;;;;;;;15.95;9.25;;;1.90;99.90;;;;;;5032222;28;20037;-65
2021/12/04 05:43:01;;;;;;;19.80;9.20;;;1.90;99.90;;;;;;5027057;28;20519;-65
2021/12/04 05:45:27;;;;;;;18.90;9.60;;;1.80;99.90;;;;;;5025290;28;20096;-65
2021/12/04 05:51:15;;;;;;;21.63;9.10;;;2.10;99.90;;;;;;5012084;28;20037;-65
2021/12/04 05:53:56;;;;;;;20.52;11.05;;;2.60;99.90;;;;;;5027175;28;20042;-65
2021/12/04 05:56:21;;;;;;;17.55;9.10;;;1.90;99.90;;;;;;5029612;28;20040;-65
2021/12/04 05:58:47;;;;;;;24.75;10.48;;;1.90;99.90;;;;;;5031265;28;20029;-65
2021/12/04 06:01:13;;;;;;;24.55;12.27;;;1.90;99.90;;;;;;5019582;28;20033;-65
2021/12/04 06:03:38;;;;;;;22.40;12.30;;;1.80;99.90;;;;;;5023541;28;20064;-65
2021/12/04 06:06:04;;;;;;;23.35;12.75;;;1.80;99.90;;;;;;5021596;28;20535;-65
2021/12/04 06:08:29;;;;;;;26.88;14.25;;;2.00;99.90;;;;;;5030872;28;20045;-65
2021/12/04 06:10:55;;;;;;;26.58;14.43;;;1.70;99.90;;;;;;5026513;28;20029;-65
2021/12/04 06:13:20;;;;;;;28.77;14.75;;;1.70;99.90;;;;;;5024221;28;20045;-67
2021/12/04 06:15:46;;;;;;;25.00;13.63;;;1.70;99.90;;;;;;5019915;28;20045;-66
2021/12/04 06:18:13;;;;;;;26.45;14.77;;;1.70;99.90;;;;;;5031563;28;20037;-64
2021/12/04 06:23:23;;;;;;;44.67;20.55;;;1.80;99.90;;;;;;5021992;28;20036;-65
2021/12/04 06:25:48;;;;;;;26.83;13.60;;;1.90;99.90;;;;;;5020680;28;20694;-65
2021/12/04 06:28:14;;;;;;;27.98;15.23;;;1.90;99.90;;;;;;5035158;28;20048;-65
2021/12/04 06:30:41;;;;;;;26.33;13.50;;;1.80;99.90;;;;;;5033640;28;20035;-65
2021/12/04 06:33:07;;;;;;;23.05;12.15;;;1.80;99.90;;;;;;5015623;28;20464;-65
2021/12/04 06:35:33;;;;;;;26.08;13.25;;;1.80;99.90;;;;;;5015697;28;20481;-66
2021/12/04 06:37:58;;;;;;;23.83;12.85;;;1.90;99.90;;;;;;5023934;28;20021;-65
2021/12/04 06:40:26;;;;;;;25.52;12.93;;;1.80;99.90;;;;;;5027504;28;20033;-65
2021/12/04 06:42:52;;;;;;;22.70;11.85;;;1.50;99.90;;;;;;5019703;28;20038;-65
2021/12/04 06:45:17;;;;;;;23.58;12.73;;;2.00;99.90;;;;;;5010655;28;20387;-65
2021/12/04 06:47:51;;;;;;;23.73;12.82;;;2.70;99.90;;;;;;5025823;28;20179;-66
2021/12/04 06:50:27;;;;;;;22.23;12.55;;;2.00;99.90;;;;;;5027074;28;20029;-64
2021/12/04 06:52:53;;;;;;;20.25;11.68;;;1.80;99.90;;;;;;5029707;28;20041;-64
2021/12/04 06:55:26;;;;;;;25.67;12.32;;;2.00;99.90;;;;;;5022242;28;20734;-64
2021/12/04 06:57:51;;;;;;;21.05;11.68;;;1.90;99.90;;;;;;5025156;28;20546;-64
2021/12/04 07:00:17;;;;;;;25.17;12.93;;;1.60;99.90;;;;;;5028315;28;20033;-65
2021/12/04 07:02:42;;;;;;;23.23;12.35;;;1.90;99.90;;;;;;5010159;28;20572;-64
2021/12/04 07:05:08;;;;;;;25.63;13.45;;;1.90;99.90;;;;;;5022918;28;20037;-71
2021/12/04 07:07:33;;;;;;;25.58;14.02;;;1.80;99.90;;;;;;5020883;28;20033;-71
2021/12/04 07:09:59;;;;;;;24.48;12.73;;;1.90;99.90;;;;;;5026538;28;20030;-71
2021/12/04 07:12:25;;;;;;;24.70;13.07;;;1.50;99.90;;;;;;5024149;28;20080;-71
2021/12/04 07:14:51;;;;;;;23.50;12.85;;;1.70;99.90;;;;;;5019772;28;20030;-71
2021/12/04 07:17:17;;;;;;;22.55;12.70;;;;;;;;;;5020202;28;20036;-72
2021/12/04 07:19:43;;;;;;;26.90;13.90;;;;;;;;;;5028021;28;20477;-72
2021/12/04 07:22:09;;;;;;;21.23;11.70;;;1.80;99.90;;;;;;5027392;28;20038;-71
2021/12/04 07:24:34;;;;;;;20.45;10.68;;;1.80;99.90;;;;;;5028150;28;20881;-74
2021/12/04 07:27:00;;;;;;;23.52;12.57;;;1.90;99.90;;;;;;5019170;28;20040;-71
2021/12/04 07:29:25;;;;;;;20.42;10.48;;;1.90;99.90;;;;;;5031609;28;20036;-73
2021/12/04 07:31:51;;;;;;;23.25;11.55;;;2.00;99.90;;;;;;5024601;28;20421;-71
2021/12/04 07:34:16;;;;;;;24.45;11.43;;;2.00;99.90;;;;;;5022901;28;20025;-72
2021/12/04 07:36:42;;;;;;;19.25;10.70;;;2.00;99.90;;;;;;5027124;28;20029;-72
2021/12/04 07:39:07;;;;;;;19.85;11.20;;;2.00;99.90;;;;;;5032671;28;20090;-72
2021/12/04 07:41:37;;;;;;;18.17;10.15;;;2.00;99.90;;;;;;5029598;28;20113;-71
2021/12/04 07:44:03;;;;;;;21.00;10.77;;;2.00;99.90;;;;;;5026526;28;20110;-72
2021/12/04 07:46:28;;;;;;;27.38;13.75;;;2.10;99.90;;;;;;5028044;28;20520;-71
2021/12/04 07:48:54;;;;;;;18.67;10.38;;;2.00;99.90;;;;;;5030314;28;20029;-71
2021/12/04 07:51:20;;;;;;;20.40;10.48;;;2.00;99.90;;;;;;5027731;28;20091;-71
2021/12/04 07:53:48;;;;;;;21.00;9.77;;;2.10;99.90;;;;;;5026245;28;20048;-71
2021/12/04 07:56:14;;;;;;;18.27;9.63;;;2.10;99.90;;;;;;5022581;28;20037;-71
2021/12/04 07:58:42;;;;;;;18.42;9.93;;;2.00;99.90;;;;;;5019087;28;20037;-72
2021/12/04 08:01:07;;;;;;;18.52;9.93;;;2.10;99.90;;;;;;5028386;28;20035;-71
2021/12/04 08:03:33;;;;;;;19.33;9.55;;;2.10;99.90;;;;;;5030594;28;20718;-71
2021/12/04 08:05:58;;;;;;;20.42;10.20;;;2.20;99.90;;;;;;5026600;28;20053;-72
2021/12/04 08:08:24;;;;;;;20.02;9.85;;;2.20;99.90;;;;;;5028601;28;21069;-72
2021/12/04 08:10:49;;;;;;;20.73;9.32;;;2.70;99.90;;;;;;5029434;28;20034;-70
2021/12/04 08:13:15;;;;;;;18.40;9.43;;;2.10;99.90;;;;;;5021308;28;20029;-71
2021/12/04 08:15:40;;;;;;;15.52;8.57;;;2.10;99.90;;;;;;5025092;28;20033;-71
2021/12/04 08:18:08;;;;;;;20.52;9.30;;;2.10;99.90;;;;;;5018809;28;20038;-71
2021/12/04 08:20:33;;;;;;;18.52;9.38;;;2.10;99.90;;;;;;5030119;28;20409;-72
2021/12/04 08:22:59;;;;;;;15.52;9.40;;;2.10;99.90;;;;;;5031516;28;20045;-71
2021/12/04 08:25:25;;;;;;;21.17;10.02;;;2.20;99.90;;;;;;5024673;28;20037;-71
2021/12/04 08:27:51;;;;;;;18.55;8.57;;;2.20;99.90;;;;;;5020889;28;20041;-71
2021/12/04 08:30:16;;;;;;;15.80;9.20;;;2.30;99.90;;;;;;5024773;28;20452;-71
2021/12/04 08:32:42;;;;;;;15.15;8.88;;;2.60;99.90;;;;;;5030123;28;20057;-71
2021/12/04 08:35:07;;;;;;;16.08;9.32;;;2.30;99.90;;;;;;5024196;28;20469;-70
2021/12/04 08:37:33;;;;;;;33.60;15.95;;;2.30;99.90;;;;;;5019020;28;20026;-73
2021/12/04 08:39:58;;;;;;;38.20;16.02;;;2.20;99.90;;;;;;5026886;28;20393;-74
2021/12/04 08:42:24;;;;;;;17.38;9.30;;;2.30;99.90;;;;;;5026435;28;20029;-71
2021/12/04 08:44:50;;;;;;;19.00;8.95;;;2.60;99.90;;;;;;5028003;28;20045;-71
2021/12/04 08:47:15;;;;;;;18.65;9.63;;;2.30;99.90;;;;;;5022966;28;20075;-71
2021/12/04 08:49:42;;;;;;;16.55;9.68;;;2.30;99.90;;;;;;5028301;28;20029;-71
2021/12/04 08:52:09;;;;;;;15.38;9.07;;;2.30;99.90;;;;;;5032706;28;20033;-71
2021/12/04 08:54:36;;;;;;;17.70;8.95;;;2.50;99.90;;;;;;5030298;28;20043;-70
2021/12/04 08:57:01;;;;;;;18.05;9.32;;;2.40;99.90;;;;;;5023160;28;20390;-71
2021/12/04 08:59:27;;;;;;;19.23;9.43;;;;;;;;;;5023572;28;20044;-71
2021/12/04 09:01:53;;;;;;;17.92;9.02;;;2.40;99.90;;;;;;5029995;28;20082;-71
2021/12/04 09:04:18;;;;;;;17.02;9.13;;;2.40;99.90;;;;;;5024071;28;20034;-70
2021/12/04 09:06:44;;;;;;;16.50;9.82;;;2.40;99.90;;;;;;5028840;28;20760;-70
2021/12/04 09:09:09;;;;;;;16.10;9.15;;;2.40;99.90;;;;;;5024791;28;20068;-70
2021/12/04 09:11:35;;;;;;;18.88;9.30;;;2.60;99.90;;;;;;5029325;28;20873;-71
2021/12/04 09:14:00;;;;;;;21.60;9.98;;;2.60;99.90;;;;;;5034416;28;20036;-71
2021/12/04 09:16:25;;;;;;;22.30;10.43;;;2.70;99.90;;;;;;5022384;28;20056;-70
2021/12/04 09:18:51;;;;;;;22.30;9.55;;;2.60;99.90;;;;;;5024333;28;20040;-72
2021/12/04 09:21:17;;;;;;;21.38;11.68;;;2.70;99.90;;;;;;5030683;28;20092;-71
2021/12/04 09:23:49;;;;;;;23.38;10.55;;;2.70;99.90;;;;;;5031021;28;20033;-71
2021/12/04 09:26:29;;;;;;;18.83;10.82;;;3.60;99.90;;;;;;5024403;28;20073;-71
2021/12/04 09:29:24;;;;;;;21.35;10.70;;;2.80;99.90;;;;;;5015431;28;20041;-72
2021/12/04 10:15:11;;;;;;;29.17;13.90;;;3.00;99.90;;;;;;5025336;28;20033;-72
2021/12/04 10:20:12;;;;;;;28.20;14.60;;;2.50;99.90;;;;;;5021883;28;20432;-73
2021/12/04 10:22:44;;;;;;;34.55;15.13;;;2.70;99.90;;;;;;5025191;28;20025;-72
2021/12/04 10:33:22;;;;;;;34.03;14.82;;;2.50;99.90;;;;;;5026852;28;20045;-72
2021/12/04 10:35:48;;;;;;;32.40;14.93;;;2.50;99.90;;;;;;5024095;28;20029;-71
2021/12/04 10:38:14;;;;;;;30.70;13.80;;;2.30;99.90;;;;;;5030871;28;20041;-72
2021/12/04 10:40:43;;;;;;;28.98;14.60;;;2.60;99.90;;;;;;5018045;28;20060;-71
2021/12/04 10:43:11;;;;;;;30.58;14.00;;;2.20;99.90;;;;;;5025469;28;20045;-71
2021/12/04 10:45:37;;;;;;;27.83;13.05;;;2.20;99.90;;;;;;5021849;28;20036;-71
2021/12/04 10:48:03;;;;;;;28.42;13.23;;;2.60;99.90;;;;;;5020489;28;20033;-72
2021/12/04 10:50:45;;;;;;;25.77;13.48;;;2.60;99.90;;;;;;5018529;28;20497;-73
2021/12/04 10:53:13;;;;;;;28.55;13.63;;;2.60;99.90;;;;;;5034432;28;20032;-72
2021/12/04 11:00:57;;;;;;;30.35;13.45;;;2.70;99.90;;;;;;5015112;28;20089;-71
2021/12/04 11:22:17;;;;;;;24.30;13.05;;;2.20;99.90;;;;;;5022839;28;20035;-72
2021/12/04 11:27:53;;;;;;;19.80;10.47;;;2.30;99.90;;;;;;5023777;28;20108;-71
2021/12/04 11:38:31;;;;;;;23.43;12.70;;;2.40;99.90;;;;;;5026896;28;20124;-72
2021/12/04 11:43:52;;;;;;;21.77;12.05;;;1.70;99.90;;;;;;5020909;28;20076;-71
2021/12/04 11:46:25;;;;;;;24.95;12.95;;;2.40;99.90;;;;;;5021556;28;20117;-72
2021/12/04 11:48:51;;;;;;;21.98;11.95;;;;;;;;;;5017174;28;20076;-71
2021/12/04 11:51:18;;;;;;;23.75;12.45;;;;;;;;;;5010272;28;20117;-71
2021/12/04 11:53:44;;;;;;;24.35;12.30;;;;;;;;;;5027009;28;20113;-71
2021/12/04 11:56:09;;;;;;;23.65;12.18;;;;;;;;;;5020986;28;20870;-71
2021/12/04 11:58:35;;;;;;;25.75;12.13;;;2.10;99.90;;;;;;5021910;28;20116;-72
2021/12/04 12:01:01;;;;;;;26.58;13.30;;;;;;;;;;5016631;28;20041;-71
2021/12/04 12:03:27;;;;;;;24.77;13.00;;;;;;;;;;5030736;28;20036;-71
2021/12/04 12:05:53;;;;;;;24.85;12.77;;;;;;;;;;5024940;28;20078;-71
2021/12/04 12:08:19;;;;;;;23.92;12.52;;;;;;;;;;5022479;28;20123;-72
2021/12/04 12:10:48;;;;;;;24.45;11.95;;;;;;;;;;5012626;28;20397;-71
2021/12/04 12:13:17;;;;;;;25.08;13.07;;;3.00;99.90;;;;;;5027954;28;20045;-71
2021/12/04 12:15:43;;;;;;;24.85;13.15;;;2.90;99.90;;;;;;5033148;28;20033;-71
2021/12/04 12:18:09;;;;;;;27.25;13.65;;;;;;;;;;5026654;28;20033;-71
2021/12/04 12:20:50;;;;;;;24.30;12.52;;;;;;;;;;5026754;28;20035;-71
2021/12/04 12:23:19;;;;;;;26.02;12.82;;;2.70;99.90;;;;;;5026886;28;20041;-71
2021/12/04 12:34:11;;;;;;;24.00;12.13;;;2.50;99.90;;;;;;5030763;28;20657;-71
2021/12/04 12:36:37;;;;;;;26.00;13.35;;;;;;;;;;5028173;28;20029;-71
2021/12/04 12:39:02;;;;;;;28.10;13.95;;;;;;;;;;5029327;28;20440;-70
2021/12/04 12:41:29;;;;;;;26.30;14.00;;;;;;;;;;5027556;28;20029;-70
2021/12/04 12:43:54;;;;;;;23.67;12.65;;;2.80;99.90;;;;;;5029871;28;20095;-69
2021/12/04 12:46:20;;;;;;;25.08;13.32;;;;;;;;;;5030879;28;20037;-69
2021/12/04 12:48:46;;;;;;;23.65;13.25;;;;;;;;;;5027597;28;20544;-69
2021/12/04 12:51:12;;;;;;;27.90;14.85;;;;;;;;;;5021647;28;20025;-69
2021/12/04 12:53:38;;;;;;;45.17;16.15;;;;;;;;;;5020574;28;20466;-71
2021/12/04 12:56:03;;;;;;;25.00;13.20;;;2.90;99.90;;;;;;5032970;28;20029;-71
2021/12/04 12:58:31;;;;;;;23.50;13.38;;;2.80;99.90;;;;;;5026093;28;20025;-72
2021/12/04 13:11:54;;;;;;;24.70;14.05;;;2.70;99.90;;;;;;5023780;28;20030;-71
2021/12/04 13:14:19;;;;;;;26.60;13.90;;;2.70;99.90;;;;;;5026131;28;20037;-71
2021/12/04 13:16:46;;;;;;;23.00;12.55;;;;;;;;;;5031942;28;20033;-71
2021/12/04 13:19:13;;;;;;;25.38;13.70;;;;;;;;;;5030528;28;20108;-71
2021/12/04 13:21:40;;;;;;;24.98;13.38;;;;;;;;;;5020079;28;20044;-71
2021/12/04 13:24:05;;;;;;;27.90;14.20;;;2.20;99.90;;;;;;5021323;28;20036;-72
2021/12/04 13:26:31;;;;;;;25.83;13.43;;;;;;;;;;5030090;28;20025;-71
2021/12/04 13:28:59;;;;;;;25.45;14.10;;;;;;;;;;5028635;28;20681;-70
2021/12/04 13:31:25;;;;;;;22.45;12.50;;;;;;;;;;5022960;28;20048;-70
2021/12/04 13:33:51;;;;;;;22.45;12.15;;;;;;;;;;5024401;28;20021;-70
2021/12/04 13:36:17;;;;;;;20.50;12.02;;;;;;;;;;5031208;28;20577;-69
2021/12/04 13:38:43;;;;;;;24.55;12.73;;;;;;;;;;5023987;28;20029;-69
2021/12/04 13:41:09;;;;;;;41.38;15.13;;;;;;;;;;5024021;28;20039;-71
2021/12/04 13:43:35;;;;;;;25.70;12.68;;;;;;;;;;5025773;28;20549;-70
2021/12/04 13:46:01;;;;;;;31.13;13.00;;;;;;;;;;5032025;28;20188;-70
2021/12/04 13:48:27;;;;;;;29.08;13.27;;;;;;;;;;5024911;28;20029;-72
2021/12/04 13:50:53;;;;;;;29.10;14.10;;;;;;;;;;5026038;28;20025;-70
2021/12/04 13:53:18;;;;;;;41.15;14.05;;;2.70;99.90;;;;;;5020355;28;20033;-70
2021/12/04 13:55:44;;;;;;;23.10;12.02;;;;;;;;;;5037651;28;20968;-70
2021/12/04 13:58:10;;;;;;;23.77;12.68;;;;;;;;;;5031327;28;20024;-71
2021/12/04 14:00:36;;;;;;;25.17;13.23;;;;;;;;;;5015847;28;20516;-71
2021/12/04 14:03:02;;;;;;;23.95;13.18;;;2.70;99.90;;;;;;5006857;28;20086;-71
2021/12/04 14:05:28;;;;;;;22.40;12.65;;;;;;;;;;5028768;28;20033;-71
2021/12/04 14:07:54;;;;;;;25.30;12.70;;;;;;;;;;5028096;28;20036;-71
2021/12/04 14:10:20;;;;;;;26.67;14.90;;;;;;;;;;5025282;28;20045;-71
2021/12/04 14:12:46;;;;;;;37.13;17.20;;;;;;;;;;5026654;28;20032;-71
2021/12/04 14:15:12;;;;;;;22.00;12.13;;;;;;;;;;5029366;28;20397;-70
2021/12/04 14:17:38;;;;;;;33.60;18.42;;;;;;;;;;5026608;28;20025;-70
2021/12/04 14:20:04;;;;;;;23.52;14.38;;;;;;;;;;5029084;28;20075;-70
2021/12/04 14:22:30;;;;;;;22.65;12.40;;;;;;;;;;5022606;28;20033;-70
2021/12/04 14:24:57;;;;;;;20.20;12.30;;;;;;;;;;5023937;28;20025;-71
2021/12/04 14:27:23;;;;;;;21.52;12.07;;;;;;;;;;5036003;28;20218;-71
2021/12/04 14:29:49;;;;;;;22.33;12.07;;;3.20;99.90;;;;;;5017600;28;20025;-70
2021/12/04 14:32:16;;;;;;;20.15;11.20;;;;;;;;;;5018727;28;20405;-70
2021/12/04 14:34:43;;;;;;;21.42;12.20;;;;;;;;;;5021596;28;20029;-71
2021/12/04 14:37:10;;;;;;;25.33;12.32;;;2.90;99.90;;;;;;5035205;28;20029;-70
2021/12/04 14:39:36;;;;;;;22.33;12.00;;;;;;;;;;5025893;28;20108;-70
2021/12/04 14:42:02;;;;;;;28.70;12.27;;;;;;;;;;5015368;28;20053;-70
2021/12/04 14:44:28;;;;;;;21.42;11.63;;;;;;;;;;5019259;28;20116;-70
2021/12/04 14:46:54;;;;;;;21.63;11.43;;;;;;;;;;5033566;28;20040;-72
2021/12/04 14:49:21;;;;;;;20.48;11.68;;;;;;;;;;5028709;28;20033;-71
2021/12/04 14:51:47;;;;;;;22.38;11.55;;;;;;;;;;5022789;28;20385;-71
2021/12/04 14:54:13;;;;;;;21.17;11.80;;;;;;;;;;5017985;28;20684;-71
2021/12/04 14:56:38;;;;;;;21.67;11.55;;;;;;;;;;5026083;28;20037;-73
2021/12/04 14:59:05;;;;;;;19.65;11.68;;;;;;;;;;5031784;28;20032;-71
2021/12/04 15:01:32;;;;;;;25.63;14.10;;;;;;;;;;5023834;28;20029;-69
2021/12/04 15:03:59;;;;;;;21.73;12.18;;;;;;;;;;5017382;28;20514;-70
2021/12/04 15:06:26;;;;;;;25.65;13.55;;;;;;;;;;5027983;28;20041;-70
2021/12/04 15:08:52;;;;;;;23.75;12.55;;;;;;;;;;5027844;28;20034;-70
2021/12/04 15:11:19;;;;;;;20.33;11.85;;;;;;;;;;5021349;28;20036;-70
2021/12/04 15:13:52;;;;;;;24.80;12.52;;;;;;;;;;5022981;28;20048;-70
2021/12/04 15:16:21;;;;;;;21.38;11.52;;;;;;;;;;5023248;28;20037;-70
2021/12/04 15:18:48;;;;;;;24.48;12.60;;;;;;;;;;5029755;28;20454;-70
2021/12/04 15:21:15;;;;;;;22.73;11.35;;;;;;;;;;5024511;28;20371;-69
2021/12/04 15:23:41;;;;;;;27.52;12.73;;;;;;;;;;5016205;28;20033;-69
2021/12/04 15:26:07;;;;;;;27.23;13.73;;;2.60;99.90;;;;;;5018284;28;20450;-69
2021/12/04 15:28:32;;;;;;;20.08;11.70;;;;;;;;;;5028725;28;20029;-70
2021/12/04 15:30:59;;;;;;;27.33;14.18;;;;;;;;;;5029711;28;20364;-69
2021/12/04 15:33:25;;;;;;;23.40;12.43;;;;;;;;;;5021141;28;20037;-70
2021/12/04 15:35:51;;;;;;;25.55;13.20;;;;;;;;;;5018869;28;20057;-71
2021/12/04 15:38:29;;;;;;;32.55;14.35;;;;;;;;;;5039134;28;20040;-70
2021/12/04 15:44:01;;;;;;;27.03;13.60;;;;;;;;;;5030589;28;20052;-69
2021/12/04 15:46:42;;;;;;;29.25;14.48;;;;;;;;;;5032045;28;20752;-69
2021/12/04 15:54:39;;;;;;;30.92;14.88;;;;;;;;;;5027886;28;20045;-70
2021/12/04 15:57:05;;;;;;;28.08;14.63;;;;;;;;;;5028690;28;20128;-70
2021/12/04 15:59:31;;;;;;;26.23;13.48;;;;;;;;;;5035299;28;20037;-70
2021/12/04 16:01:57;;;;;;;25.85;13.55;;;;;;;;;;5035331;28;20501;-70
2021/12/04 16:04:23;;;;;;;30.75;14.98;;;;;;;;;;5028602;28;20033;-70
2021/12/04 16:06:49;;;;;;;27.15;14.75;;;;;;;;;;5034872;28;20405;-72
2021/12/04 16:09:15;;;;;;;30.60;16.17;;;;;;;;;;5037617;28;20029;-71
2021/12/04 16:11:41;;;;;;;32.33;16.30;;;;;;;;;;5033206;28;20746;-71
2021/12/04 16:14:08;;;;;;;28.17;15.20;;;;;;;;;;5028855;28;20022;-71